Time;durP1;ratioP1;P1;durP2;ratioP2;P2;SDS_P1;SDS_P2;PMS_P1;PMS_P2;Temp;Humidity;BMP_temperature;BMP_pressure;BME280_temperature;BME280_humidity;BME280_pressure;Samples;Min_cycle;Max_cycle;Signal;HPM_P1;HPM_P2
2023/04/06 00:01:56;;;;;;;;;;;;;;;11.83;97.03;101071.22;7354939;19;20347;-66
2023/04/06 00:04:23;;;;;;;;;;;;;;;11.81;97.03;101070.53;7356141;19;20360;-66
2023/04/06 00:06:50;;;;;;;;;;;;;;;11.82;97.69;101069.56;7352862;19;21048;-66
2023/04/06 00:09:17;;;;;;;;;;;;;;;11.81;97.40;101063.44;7358547;19;19953;-65
2023/04/06 00:11:44;;;;;;;;;;;;;;;11.81;97.55;101062.63;7356133;19;19926;-67
2023/04/06 00:14:10;;;;;;;;;;;;;;;11.81;98.46;101052.06;7356534;19;19922;-65
2023/04/06 00:16:37;;;;;;;;;;;;;;;11.81;98.33;101054.72;7352029;19;19919;-66
2023/04/06 00:19:04;;;;;;;;;;;;;;;11.83;98.30;101050.13;7351806;19;19923;-65
2023/04/06 00:21:32;;;;;;;;;;;;;;;11.85;98.64;101048.13;7358217;19;19915;-66
2023/04/06 00:23:58;;;;;;;;;;;;;;;11.77;98.19;101051.56;7357661;19;19945;-66
2023/04/06 00:26:25;;;;;;;;;;;;;;;11.80;98.94;101042.50;7355786;19;19922;-67
2023/04/06 00:28:52;;;;;;;;;;;;;;;11.79;98.90;101043.47;7359319;19;20621;-66
2023/04/06 00:31:20;;;;;;;;;;;;;;;11.78;99.51;101033.94;7361321;19;20363;-66
2023/04/06 00:33:48;;;;;;;;;;;;;;;11.77;99.72;101022.56;7357294;19;20544;-66
2023/04/06 00:36:14;;;;;;;;;;;;;;;11.76;99.46;101030.63;7351272;19;19923;-68
2023/04/06 00:38:41;;;;;;;;;;;;;;;11.71;98.90;101025.78;7355136;19;19947;-67
2023/04/06 00:41:08;;;;;;;;;;;;;;;11.69;99.14;101027.72;7358731;19;19918;-66
2023/04/06 00:43:35;;;;;;;;;;;;;;;11.72;99.83;101027.44;7357801;19;20817;-66
2023/04/06 00:46:02;;;;;;;;;;;;;;;11.75;100.00;101018.41;7354051;19;20483;-64
2023/04/06 00:48:30;;;;;;;;;;;;;;;11.74;100.00;101009.69;7353766;19;19929;-66
2023/04/06 00:50:57;;;;;;;;;;;;;;;11.73;100.00;101015.13;7356044;19;20444;-67
2023/04/06 00:53:25;;;;;;;;;;;;;;;11.70;99.73;101003.03;7356747;19;19923;-65
2023/04/06 00:55:52;;;;;;;;;;;;;;;11.72;99.99;101000.25;7352110;19;20280;-67
2023/04/06 00:58:19;;;;;;;;;;;;;;;11.73;99.68;100996.69;7353133;19;20514;-67
2023/04/06 01:00:46;;;;;;;;;;;;;;;11.72;99.78;100993.19;7356620;19;19926;-66
2023/04/06 01:03:13;;;;;;;;;;;;;;;11.71;99.97;100991.50;7355144;19;21280;-66
2023/04/06 01:05:44;;;;;;;;;;;;;;;11.71;100.00;100990.69;7349895;19;20849;-66
2023/04/06 01:08:11;;;;;;;;;;;;;;;11.71;100.00;100985.41;7351307;19;19929;-67
2023/04/06 01:10:37;;;;;;;;;;;;;;;11.72;100.00;100980.00;7355528;19;19924;-68
2023/04/06 01:13:04;;;;;;;;;;;;;;;11.75;100.00;100969.16;7357984;19;19915;-67
2023/04/06 01:15:32;;;;;;;;;;;;;;;11.77;100.00;100974.28;7356999;19;19930;-66
2023/04/06 01:17:59;;;;;;;;;;;;;;;11.78;100.00;100973.31;7349003;19;19960;-66
2023/04/06 01:20:26;;;;;;;;;;;;;;;11.79;100.00;100967.84;7356488;19;19943;-66
2023/04/06 01:22:52;;;;;;;;;;;;;;;11.76;100.00;100964.72;7357217;19;19960;-66
2023/04/06 01:25:20;;;;;;;;;;;;;;;11.71;100.00;100954.63;7353189;19;20420;-67
2023/04/06 01:27:46;;;;;;;;;;;;;;;11.71;100.00;100959.88;7353735;19;19926;-66
2023/04/06 01:30:13;;;;;;;;;;;;;;;11.72;100.00;100953.63;7355282;19;19918;-66
2023/04/06 01:32:40;;;;;;;;;;;;;;;11.73;100.00;100946.59;7352159;19;19974;-66
2023/04/06 01:35:08;;;;;;;;;;;;;;;11.71;100.00;100946.72;7352133;19;20799;-66
2023/04/06 01:37:35;;;;;;;;;;;;;;;11.71;100.00;100941.44;7348135;19;19914;-65
2023/04/06 01:40:02;;;;;;;;;;;;;;;11.70;100.00;100937.13;7355424;19;19914;-66
2023/04/06 01:42:30;;;;;;;;;;;;;;;11.69;100.00;100942.56;7356912;19;20261;-66
2023/04/06 01:44:56;;;;;;;;;;;;;;;11.69;100.00;100929.38;7354457;19;19919;-66
2023/04/06 01:47:23;;;;;;;;;;;;;;;11.69;100.00;100926.75;7352693;19;19930;-65
2023/04/06 01:49:50;;;;;;;;;;;;;;;11.73;100.00;100925.50;7350298;19;19919;-65
2023/04/06 01:52:17;;;;;;;;;;;;;;;11.75;100.00;100926.16;7355910;19;19944;-67
2023/04/06 01:54:44;;;;;;;;;;;;;;;11.74;100.00;100925.31;7350747;19;19915;-66
2023/04/06 01:57:11;;;;;;;;;;;;;;;11.74;100.00;100919.22;7349756;19;19914;-66
2023/04/06 01:59:38;;;;;;;;;;;;;;;11.74;100.00;100913.94;7349562;19;19947;-65
2023/04/06 02:02:05;;;;;;;;;;;;;;;11.71;100.00;100911.59;7351825;19;21479;-66
2023/04/06 02:04:32;;;;;;;;;;;;;;;11.71;100.00;100903.72;7348067;19;20560;-66
2023/04/06 02:06:59;;;;;;;;;;;;;;;11.73;100.00;100905.25;7353330;19;19914;-64
2023/04/06 02:09:26;;;;;;;;;;;;;;;11.74;100.00;100904.25;7352510;19;20292;-65
2023/04/06 02:11:53;;;;;;;;;;;;;;;11.75;100.00;100897.16;7355823;19;19941;-67
2023/04/06 02:14:20;;;;;;;;;;;;;;;11.75;100.00;100895.34;7354295;19;19982;-66
2023/04/06 02:16:47;;;;;;;;;;;;;;;11.75;100.00;100891.88;7351190;19;19926;-66
2023/04/06 02:19:14;;;;;;;;;;;;;;;11.74;100.00;100892.88;7350119;19;19926;-66
2023/04/06 02:21:41;;;;;;;;;;;;;;;11.78;100.00;100884.50;7353735;19;20681;-67
2023/04/06 02:24:08;;;;;;;;;;;;;;;11.81;100.00;100880.72;7352015;19;19938;-66
2023/04/06 02:26:34;;;;;;;;;;;;;;;11.84;100.00;100885.66;7349941;19;20331;-65
2023/04/06 02:29:02;;;;;;;;;;;;;;;11.80;100.00;100887.78;7353618;19;19955;-67
2023/04/06 02:31:28;;;;;;;;;;;;;;;11.79;100.00;100880.88;7351703;19;19919;-65
2023/04/06 02:33:55;;;;;;;;;;;;;;;11.80;100.00;100877.25;7353573;19;19927;-67
2023/04/06 02:36:22;;;;;;;;;;;;;;;11.79;100.00;100872.94;7345502;19;19923;-66
2023/04/06 02:38:49;;;;;;;;;;;;;;;11.81;100.00;100871.00;7352963;19;19939;-66
2023/04/06 02:41:16;;;;;;;;;;;;;;;11.79;100.00;100869.50;7356038;19;19919;-65
2023/04/06 02:43:43;;;;;;;;;;;;;;;11.79;100.00;100864.22;7354375;19;19918;-67
2023/04/06 02:46:10;;;;;;;;;;;;;;;11.78;100.00;100862.59;7346901;19;20323;-67
2023/04/06 02:48:37;;;;;;;;;;;;;;;11.81;100.00;100854.34;7350169;19;19923;-65
2023/04/06 02:51:03;;;;;;;;;;;;;;;11.79;100.00;100848.41;7351355;19;20264;-66
2023/04/06 02:53:30;;;;;;;;;;;;;;;11.76;100.00;100854.00;7351521;19;19922;-66
2023/04/06 02:55:59;;;;;;;;;;;;;;;11.74;100.00;100846.25;7347282;19;19926;-66
2023/04/06 02:58:26;;;;;;;;;;;;;;;11.73;100.00;100844.63;7349086;19;20083;-66
2023/04/06 03:00:53;;;;;;;;;;;;;;;11.72;100.00;100844.75;7351621;19;19919;-66
2023/04/06 03:03:21;;;;;;;;;;;;;;;11.72;100.00;100842.09;7352425;19;20211;-65
2023/04/06 03:05:48;;;;;;;;;;;;;;;11.76;100.00;100839.00;7346903;19;19930;-67
2023/04/06 03:08:15;;;;;;;;;;;;;;;11.76;100.00;100833.75;7344845;19;20137;-66
2023/04/06 03:10:42;;;;;;;;;;;;;;;11.71;100.00;100825.47;7352701;19;19923;-65
2023/04/06 03:13:08;;;;;;;;;;;;;;;11.71;100.00;100827.25;7362806;19;19922;-66
2023/04/06 03:15:35;;;;;;;;;;;;;;;11.72;100.00;100827.13;7357160;19;20026;-66
2023/04/06 03:18:02;;;;;;;;;;;;;;;11.73;100.00;100823.53;7354570;19;20545;-65
2023/04/06 03:20:29;;;;;;;;;;;;;;;11.73;100.00;100820.91;7359853;19;19915;-66
2023/04/06 03:22:56;;;;;;;;;;;;;;;11.74;100.00;100825.16;7359109;19;19922;-66
2023/04/06 03:25:23;;;;;;;;;;;;;;;11.74;100.00;100817.25;7357733;19;19930;-65
2023/04/06 03:27:50;;;;;;;;;;;;;;;11.77;100.00;100814.31;7356985;19;19915;-66
2023/04/06 03:30:17;;;;;;;;;;;;;;;11.78;100.00;100817.78;7359958;19;19943;-66
2023/04/06 03:32:44;;;;;;;;;;;;;;;11.79;100.00;100820.22;7355430;19;19943;-66
2023/04/06 03:35:11;;;;;;;;;;;;;;;11.81;100.00;100825.34;7356326;19;19919;-67
2023/04/06 03:37:38;;;;;;;;;;;;;;;11.81;100.00;100818.28;7355510;19;20384;-66
2023/04/06 03:40:05;;;;;;;;;;;;;;;11.79;100.00;100811.50;7356862;19;19919;-66
2023/04/06 03:42:32;;;;;;;;;;;;;;;11.76;100.00;100807.38;7357407;19;20008;-65
2023/04/06 03:44:59;;;;;;;;;;;;;;;11.78;100.00;100807.22;7357245;19;19935;-65
2023/04/06 03:47:26;;;;;;;;;;;;;;;11.76;100.00;100798.66;7353692;19;20692;-65
2023/04/06 03:49:53;;;;;;;;;;;;;;;11.75;100.00;100803.09;7358712;19;19990;-65
2023/04/06 03:52:19;;;;;;;;;;;;;;;11.76;100.00;100799.47;7356863;19;19955;-66
2023/04/06 03:54:46;;;;;;;;;;;;;;;11.79;100.00;100795.69;7357425;19;19919;-66
2023/04/06 03:57:13;;;;;;;;;;;;;;;11.82;100.00;100795.38;7355503;19;19965;-66
2023/04/06 03:59:40;;;;;;;;;;;;;;;11.83;100.00;100795.22;7354331;19;19923;-65
2023/04/06 04:02:07;;;;;;;;;;;;;;;11.83;100.00;100794.41;7358779;19;19922;-66
2023/04/06 04:04:34;;;;;;;;;;;;;;;11.84;100.00;100796.84;7357776;19;20301;-65
2023/04/06 04:07:01;;;;;;;;;;;;;;;11.85;100.00;100800.31;7353729;19;19923;-66
2023/04/06 04:09:28;;;;;;;;;;;;;;;11.84;100.00;100796.00;7355599;19;19923;-66
2023/04/06 04:11:55;;;;;;;;;;;;;;;11.84;100.00;100796.00;7355281;19;19915;-65
2023/04/06 04:14:22;;;;;;;;;;;;;;;11.84;100.00;100785.47;7354159;19;19930;-66
2023/04/06 04:16:49;;;;;;;;;;;;;;;11.83;100.00;100786.47;7352378;19;19947;-66
2023/04/06 04:19:16;;;;;;;;;;;;;;;11.82;100.00;100780.38;7353621;19;19958;-66
2023/04/06 04:21:44;;;;;;;;;;;;;;;11.77;100.00;100776.56;7360988;19;20345;-66
2023/04/06 04:24:11;;;;;;;;;;;;;;;11.81;100.00;100772.63;7354928;19;19919;-67
2023/04/06 04:26:38;;;;;;;;;;;;;;;11.86;100.00;100778.25;7355197;19;20726;-66
2023/04/06 04:29:05;;;;;;;;;;;;;;;11.89;100.00;100780.53;7355471;19;20219;-66
2023/04/06 04:31:33;;;;;;;;;;;;;;;11.89;100.00;100772.63;7356528;19;20034;-67
2023/04/06 04:34:00;;;;;;;;;;;;;;;11.87;100.00;100767.53;7356769;19;19921;-67
2023/04/06 04:36:26;;;;;;;;;;;;;;;11.88;100.00;100776.28;7351274;19;19918;-65
2023/04/06 04:38:53;;;;;;;;;;;;;;;11.87;100.00;100777.25;7355067;19;19927;-66
2023/04/06 04:41:20;;;;;;;;;;;;;;;11.85;100.00;100772.13;7356824;19;20240;-65
2023/04/06 04:43:47;;;;;;;;;;;;;;;11.88;100.00;100774.47;7356493;19;19930;-65
2023/04/06 04:46:14;;;;;;;;;;;;;;;11.89;100.00;100772.63;7353238;19;20202;-67
2023/04/06 04:48:41;;;;;;;;;;;;;;;11.89;100.00;100778.72;7353047;19;20312;-66
2023/04/06 04:51:08;;;;;;;;;;;;;;;11.89;100.00;100775.25;7353520;19;20491;-66
2023/04/06 04:53:35;;;;;;;;;;;;;;;11.88;100.00;100771.00;7351815;19;19918;-66
2023/04/06 04:56:01;;;;;;;;;;;;;;;11.88;100.00;100768.38;7351863;19;19927;-66
2023/04/06 04:58:31;;;;;;;;;;;;;;;11.89;100.00;100775.25;7353252;19;19914;-66
2023/04/06 05:00:58;;;;;;;;;;;;;;;11.91;100.00;100771.50;7355215;19;20132;-65
2023/04/06 05:03:26;;;;;;;;;;;;;;;11.91;100.00;100766.22;7352501;19;19923;-66
2023/04/06 05:05:55;;;;;;;;;;;;;;;11.89;100.00;100762.91;7354576;19;19939;-66
2023/04/06 05:08:22;;;;;;;;;;;;;;;11.90;100.00;100767.19;7353166;19;19923;-67
2023/04/06 05:10:50;;;;;;;;;;;;;;;11.85;100.00;100764.22;7354774;19;19922;-66
2023/04/06 05:13:16;;;;;;;;;;;;;;;11.87;100.00;100753.53;7351786;19;20345;-66
2023/04/06 05:15:43;;;;;;;;;;;;;;;11.90;100.00;100763.75;7353475;19;19952;-66
2023/04/06 05:18:10;;;;;;;;;;;;;;;11.94;100.00;100770.31;7350489;19;20967;-67
2023/04/06 05:20:38;;;;;;;;;;;;;;;11.93;100.00;100752.88;7355859;19;20246;-67
2023/04/06 05:23:05;;;;;;;;;;;;;;;11.95;100.00;100759.63;7354730;19;19915;-66
2023/04/06 05:25:32;;;;;;;;;;;;;;;11.96;100.00;100763.09;7354044;19;20267;-66
2023/04/06 05:27:59;;;;;;;;;;;;;;;11.96;100.00;100761.28;7350702;19;19926;-66
2023/04/06 05:30:26;;;;;;;;;;;;;;;11.94;100.00;100757.97;7355998;19;19922;-66
2023/04/06 05:32:54;;;;;;;;;;;;;;;11.94;100.00;100755.34;7350892;19;20313;-67
2023/04/06 05:35:21;;;;;;;;;;;;;;;11.92;100.00;100754.69;7349686;19;19932;-66
2023/04/06 05:37:48;;;;;;;;;;;;;;;11.90;100.00;100753.19;7352963;19;20269;-65
2023/04/06 05:40:15;;;;;;;;;;;;;;;11.92;100.00;100752.06;7352817;19;19933;-66
2023/04/06 05:42:42;;;;;;;;;;;;;;;11.94;100.00;100749.22;7355680;19;19930;-66
2023/04/06 05:45:16;;;;;;;;;;;;;;;11.98;100.00;100755.84;7351275;19;19926;-66
2023/04/06 05:47:44;;;;;;;;;;;;;;;12.00;100.00;100753.84;7349155;19;19923;-67
2023/04/06 05:50:11;;;;;;;;;;;;;;;12.00;100.00;100751.22;7355509;19;20230;-68
2023/04/06 05:52:38;;;;;;;;;;;;;;;12.03;100.00;100747.44;7353091;19;19918;-67
2023/04/06 05:55:05;;;;;;;;;;;;;;;11.99;100.00;100745.13;7353514;19;20356;-65
2023/04/06 05:57:35;;;;;;;;;;;;;;;12.03;100.00;100748.28;7346468;19;19926;-66
2023/04/06 06:00:03;;;;;;;;;;;;;;;12.03;100.00;100750.09;7352461;19;19921;-65
2023/04/06 06:02:30;;;;;;;;;;;;;;;12.04;100.00;100743.84;7351574;19;20325;-65
2023/04/06 06:04:57;;;;;;;;;;;;;;;12.03;100.00;100742.19;7352328;19;19936;-65
2023/04/06 06:07:24;;;;;;;;;;;;;;;12.07;100.00;100739.03;7350650;19;20476;-65
2023/04/06 06:09:51;;;;;;;;;;;;;;;12.11;100.00;100736.88;7354639;19;19929;-66
2023/04/06 06:12:18;;;;;;;;;;;;;;;12.15;100.00;100738.19;7351230;19;19923;-66
2023/04/06 06:14:45;;;;;;;;;;;;;;;12.14;100.00;100739.22;7350271;19;19915;-65
2023/04/06 06:17:12;;;;;;;;;;;;;;;12.13;100.00;100737.56;7348402;19;19934;-66
2023/04/06 06:19:39;;;;;;;;;;;;;;;12.14;100.00;100741.84;7351337;19;19922;-67
2023/04/06 06:22:06;;;;;;;;;;;;;;;12.16;100.00;100753.88;7352661;19;19911;-66
2023/04/06 06:24:33;;;;;;;;;;;;;;;12.18;100.00;100759.00;7349054;19;20605;-66
2023/04/06 06:27:00;;;;;;;;;;;;;;;12.19;100.00;100756.16;7351725;19;19915;-66
2023/04/06 06:29:27;;;;;;;;;;;;;;;12.16;100.00;100751.22;7351932;19;19980;-69
2023/04/06 06:31:54;;;;;;;;;;;;;;;12.17;100.00;100752.06;7351396;19;19922;-66
2023/04/06 06:34:21;;;;;;;;;;;;;;;12.19;100.00;100752.72;7348161;19;20052;-67
2023/04/06 06:36:48;;;;;;;;;;;;;;;12.18;100.00;100765.09;7350859;19;20905;-66
2023/04/06 06:39:18;;;;;;;;;;;;;;;12.16;100.00;100753.03;7353380;19;19926;-66
2023/04/06 06:41:47;;;;;;;;;;;;;;;12.18;100.00;100751.91;7354799;19;19918;-67
2023/04/06 06:44:14;;;;;;;;;;;;;;;12.20;100.00;100747.28;7353181;19;19921;-65
2023/04/06 06:46:41;;;;;;;;;;;;;;;12.22;100.00;100755.03;7353841;19;19954;-66
2023/04/06 06:49:10;;;;;;;;;;;;;;;12.28;100.00;100743.81;7358926;19;19937;-67
2023/04/06 06:51:37;;;;;;;;;;;;;;;12.35;100.00;100745.63;7361965;19;20537;-65
2023/04/06 06:54:04;;;;;;;;;;;;;;;12.43;100.00;100737.72;7355866;19;19919;-67
2023/04/06 06:56:32;;;;;;;;;;;;;;;12.48;100.00;100731.94;7360153;19;19922;-67
2023/04/06 06:58:59;;;;;;;;;;;;;;;12.59;100.00;100730.75;7356260;19;19911;-66
2023/04/06 07:01:26;;;;;;;;;;;;;;;12.71;100.00;100727.56;7357575;19;20255;-67
2023/04/06 07:03:53;;;;;;;;;;;;;;;12.93;100.00;100719.91;7355341;19;19921;-66
2023/04/06 07:06:20;;;;;;;;;;;;;;;13.21;100.00;100719.31;7357703;19;19926;-64
2023/04/06 07:08:47;;;;;;;;;;;;;;;13.22;100.00;100734.19;7355428;19;19940;-67
2023/04/06 07:11:13;;;;;;;;;;;;;;;13.24;100.00;100748.06;7361051;19;19931;-67
2023/04/06 07:13:40;;;;;;;;;;;;;;;13.30;100.00;100748.38;7353265;19;19930;-67
2023/04/06 07:16:07;;;;;;;;;;;;;;;13.35;100.00;100746.88;7352524;19;19977;-66
2023/04/06 07:18:34;;;;;;;;;;;;;;;13.41;100.00;100742.72;7353444;19;19925;-66
2023/04/06 07:21:02;;;;;;;;;;;;;;;13.39;100.00;100748.16;7356149;19;19926;-65
2023/04/06 07:23:29;;;;;;;;;;;;;;;13.35;100.00;100738.09;7361036;19;19915;-66
2023/04/06 07:25:56;;;;;;;;;;;;;;;13.34;100.00;100747.03;7356837;19;19911;-67
2023/04/06 07:28:23;;;;;;;;;;;;;;;13.31;100.00;100755.31;7359335;19;20573;-68
2023/04/06 07:30:50;;;;;;;;;;;;;;;13.21;100.00;100745.75;7358509;19;19915;-67
2023/04/06 07:33:17;;;;;;;;;;;;;;;13.11;100.00;100746.91;7357911;19;19998;-66
2023/04/06 07:35:45;;;;;;;;;;;;;;;13.04;100.00;100746.78;7356413;19;19990;-67
2023/04/06 07:38:12;;;;;;;;;;;;;;;13.03;100.00;100750.44;7354985;19;20507;-68
2023/04/06 07:40:39;;;;;;;;;;;;;;;12.95;100.00;100754.91;7356799;19;19923;-66
2023/04/06 07:43:06;;;;;;;;;;;;;;;12.91;100.00;100753.59;7357086;19;20588;-67
2023/04/06 07:45:33;;;;;;;;;;;;;;;12.91;100.00;100758.88;7356841;19;19933;-66
2023/04/06 07:48:00;;;;;;;;;;;;;;;12.91;100.00;100757.06;7352166;19;19943;-67
2023/04/06 07:50:27;;;;;;;;;;;;;;;12.89;100.00;100764.34;7358815;19;19931;-65
2023/04/06 07:52:54;;;;;;;;;;;;;;;12.89;100.00;100764.34;7355270;19;20717;-65
2023/04/06 07:55:22;;;;;;;;;;;;;;;12.91;100.00;100770.25;7355938;19;19919;-66
2023/04/06 07:57:53;;;;;;;;;;;;;;;12.90;100.00;100779.16;7355989;19;20305;-65
2023/04/06 08:00:21;;;;;;;;;;;;;;;12.90;100.00;100770.44;7357085;19;20298;-66
2023/04/06 08:02:48;;;;;;;;;;;;;;;12.90;100.00;100771.25;7357480;19;20382;-65
2023/04/06 08:05:15;;;;;;;;;;;;;;;12.91;99.90;100778.19;7353279;19;19928;-66
2023/04/06 08:07:43;;;;;;;;;;;;;;;12.89;99.35;100774.06;7354914;19;19978;-67
2023/04/06 08:10:10;;;;;;;;;;;;;;;12.86;98.43;100770.78;7354776;19;19922;-65
2023/04/06 08:12:37;;;;;;;;;;;;;;;12.89;98.12;100774.91;7359086;19;20216;-66
2023/04/06 08:15:05;;;;;;;;;;;;;;;12.91;98.05;100775.53;7352104;19;19921;-66
2023/04/06 08:17:32;;;;;;;;;;;;;;;12.91;98.23;100780.81;7353846;19;19974;-66
2023/04/06 08:19:59;;;;;;;;;;;;;;;12.91;97.70;100788.75;7353825;19;19926;-67
2023/04/06 08:22:26;;;;;;;;;;;;;;;12.90;98.01;100779.16;7355103;19;19926;-66
2023/04/06 08:24:53;;;;;;;;;;;;;;;12.88;97.77;100783.81;7351282;19;20213;-66
2023/04/06 08:27:20;;;;;;;;;;;;;;;12.84;97.12;100782.50;7352873;19;19943;-61
2023/04/06 08:29:49;;;;;;;;;;;;;;;12.80;96.48;100784.63;7358783;19;19941;-63
2023/04/06 08:32:16;;;;;;;;;;;;;;;12.80;96.87;100781.19;7356177;19;19915;-62
2023/04/06 08:34:43;;;;;;;;;;;;;;;12.81;96.68;100778.38;7355029;19;19957;-63
2023/04/06 08:37:10;;;;;;;;;;;;;;;12.87;97.28;100771.59;7353025;19;21561;-64
2023/04/06 08:39:37;;;;;;;;;;;;;;;12.94;97.74;100766.47;7356434;19;19934;-63
2023/04/06 08:42:05;;;;;;;;;;;;;;;12.98;97.33;100767.78;7356828;19;19972;-64
2023/04/06 08:44:32;;;;;;;;;;;;;;;13.00;96.73;100774.56;7353308;19;19918;-62
2023/04/06 08:47:01;;;;;;;;;;;;;;;13.06;95.94;100773.84;7354270;19;19944;-62
2023/04/06 08:49:28;;;;;;;;;;;;;;;13.13;95.88;100772.22;7356946;19;19941;-64
2023/04/06 08:51:55;;;;;;;;;;;;;;;13.20;95.52;100775.84;7360070;19;19922;-63
2023/04/06 08:54:22;;;;;;;;;;;;;;;13.28;95.00;100782.88;7355825;19;20347;-63
2023/04/06 08:56:53;;;;;;;;;;;;;;;13.33;94.64;100771.81;7352525;19;19945;-61
2023/04/06 08:59:20;;;;;;;;;;;;;;;13.35;94.06;100775.94;7356922;19;19919;-64
2023/04/06 09:01:47;;;;;;;;;;;;;;;13.39;93.49;100776.41;7354875;19;20022;-62
2023/04/06 09:04:15;;;;;;;;;;;;;;;13.41;93.48;100782.34;7353450;19;19931;-64
2023/04/06 09:06:43;;;;;;;;;;;;;;;13.42;93.25;100782.16;7353414;19;19994;-62
2023/04/06 09:09:10;;;;;;;;;;;;;;;13.42;93.63;100782.16;7355931;19;21140;-64
2023/04/06 09:11:47;;;;;;;;;;;;;;;13.40;94.00;100789.47;7357770;19;19946;-62
2023/04/06 09:14:15;;;;;;;;;;;;;;;13.36;93.52;100785.47;7353975;19;21245;-63
2023/04/06 09:16:43;;;;;;;;;;;;;;;13.35;93.37;100786.50;7350277;19;20416;-62
2023/04/06 09:19:10;;;;;;;;;;;;;;;13.35;92.95;100788.31;7351601;19;19915;-61
2023/04/06 09:21:41;;;;;;;;;;;;;;;13.34;92.74;100784.03;7351524;19;20274;-61
2023/04/06 09:24:18;;;;;;;;;;;;;;;13.33;92.59;100777.91;7356254;19;20471;-61
2023/04/06 09:26:49;;;;;;;;;;;;;;;13.39;92.79;100784.34;7351597;19;19922;-62
2023/04/06 09:29:26;;;;;;;;;;;;;;;13.40;92.25;100783.34;7352043;19;19947;-60
2023/04/06 09:32:02;;;;;;;;;;;;;;;13.42;91.86;100787.44;7354380;19;19918;-62
2023/04/06 09:34:29;;;;;;;;;;;;;;;13.46;92.35;100791.38;7352133;19;19954;-63
2023/04/06 09:36:56;;;;;;;;;;;;;;;13.48;92.45;100793.88;7352928;19;19919;-63
2023/04/06 09:39:23;;;;;;;;;;;;;;;13.49;92.48;100793.69;7355150;19;19927;-64
2023/04/06 09:41:51;;;;;;;;;;;;;;;13.47;91.75;100795.69;7351925;19;20471;-63
2023/04/06 09:44:18;;;;;;;;;;;;;;;13.49;92.08;100790.22;7352826;19;19923;-63
2023/04/06 09:46:46;;;;;;;;;;;;;;;13.50;92.41;100783.97;7351284;19;20345;-60
2023/04/06 09:49:30;;;;;;;;;;;;;;;13.48;92.12;100784.13;7351992;19;20322;-63
2023/04/06 09:51:59;;;;;;;;;;;;;;;13.53;92.19;100783.59;7352653;19;19926;-61
2023/04/06 09:54:28;;;;;;;;;;;;;;;13.56;92.45;100783.28;7354535;19;19915;-61
2023/04/06 09:56:58;;;;;;;;;;;;;;;13.64;92.08;100786.69;7354308;19;20724;-63
2023/04/06 09:59:35;;;;;;;;;;;;;;;13.70;91.86;100788.63;7355283;19;19927;-62
2023/04/06 10:02:05;;;;;;;;;;;;;;;13.76;91.46;100800.34;7352240;19;20529;-63
2023/04/06 10:04:37;;;;;;;;;;;;;;;13.75;90.26;100797.88;7348693;19;19934;-61
2023/04/06 10:07:06;;;;;;;;;;;;;;;13.74;90.07;100793.56;7348951;19;19930;-62
2023/04/06 10:09:35;;;;;;;;;;;;;;;13.75;90.52;100801.34;7351856;19;19987;-66
2023/04/06 10:12:05;;;;;;;;;;;;;;;13.81;90.54;100803.28;7354505;19;19943;-63
2023/04/06 10:14:36;;;;;;;;;;;;;;;13.81;88.71;100800.66;7349915;19;20084;-64
2023/04/06 10:17:04;;;;;;;;;;;;;;;13.88;88.35;100798.09;7345735;19;19922;-62
2023/04/06 10:19:37;;;;;;;;;;;;;;;13.98;89.02;100806.63;7353708;19;20222;-63
2023/04/06 10:22:05;;;;;;;;;;;;;;;14.07;88.13;100809.06;7353096;19;21466;-63
2023/04/06 10:24:33;;;;;;;;;;;;;;;14.22;87.68;100803.03;7352807;19;19933;-62
2023/04/06 10:27:01;;;;;;;;;;;;;;;14.40;86.99;100808.84;7350267;19;19995;-62
2023/04/06 10:29:28;;;;;;;;;;;;;;;14.53;86.20;100801.13;7353141;19;19922;-61
2023/04/06 10:31:56;;;;;;;;;;;;;;;14.62;85.57;100808.00;7353651;19;20202;-63
2023/04/06 10:34:33;;;;;;;;;;;;;;;14.64;83.95;100807.81;7352087;19;19962;-63
2023/04/06 10:37:10;;;;;;;;;;;;;;;14.64;84.41;100807.81;7349897;19;20240;-63
2023/04/06 10:39:45;;;;;;;;;;;;;;;14.58;83.91;100816.50;7353317;19;19929;-63
2023/04/06 10:42:13;;;;;;;;;;;;;;;14.54;83.58;100821.31;7352495;19;19918;-62
2023/04/06 10:44:42;;;;;;;;;;;;;;;14.52;84.85;100813.56;7355407;19;19935;-63
2023/04/06 10:47:15;;;;;;;;;;;;;;;14.55;85.62;100810.53;7350017;19;19922;-61
2023/04/06 10:49:42;;;;;;;;;;;;;;;14.57;86.03;100820.13;7352009;19;19926;-62
2023/04/06 10:52:11;;;;;;;;;;;;;;;14.55;86.33;100821.13;7350713;19;19982;-64
2023/04/06 10:54:42;;;;;;;;;;;;;;;14.60;86.08;100817.13;7350934;19;19926;-63
2023/04/06 10:57:10;;;;;;;;;;;;;;;14.75;84.92;100812.66;7352400;19;20514;-62
2023/04/06 10:59:41;;;;;;;;;;;;;;;14.87;84.32;100835.09;7351686;19;20344;-63
2023/04/06 11:02:08;;;;;;;;;;;;;;;14.99;83.66;100834.44;7350006;19;19915;-62
2023/04/06 11:04:36;;;;;;;;;;;;;;;15.11;83.91;100828.72;7349374;19;19911;-63
2023/04/06 11:07:04;;;;;;;;;;;;;;;15.14;83.97;100836.28;7349265;19;19934;-62
2023/04/06 11:09:35;;;;;;;;;;;;;;;15.10;83.29;100832.34;7353596;19;20255;-62
2023/04/06 11:12:07;;;;;;;;;;;;;;;15.12;83.67;100825.06;7353379;19;20639;-62
2023/04/06 11:14:37;;;;;;;;;;;;;;;15.09;83.44;100830.69;7351467;19;20100;-64
2023/04/06 11:17:04;;;;;;;;;;;;;;;15.06;82.62;100829.25;7345335;19;20709;-60
2023/04/06 11:19:32;;;;;;;;;;;;;;;15.11;83.62;100839.31;7345783;19;19921;-63
2023/04/06 11:22:06;;;;;;;;;;;;;;;15.09;83.22;100834.19;7350132;19;19944;-64
2023/04/06 11:24:33;;;;;;;;;;;;;;;15.03;81.57;100834.94;7347856;19;19918;-62
2023/04/06 11:27:00;;;;;;;;;;;;;;;15.01;81.95;100830.81;7350614;19;20229;-63
2023/04/06 11:29:28;;;;;;;;;;;;;;;14.93;82.20;100835.16;7351590;19;19935;-63
2023/04/06 11:31:59;;;;;;;;;;;;;;;14.89;82.93;100841.00;7353159;19;19942;-62
2023/04/06 11:34:33;;;;;;;;;;;;;;;14.85;81.88;100837.09;7355562;19;19926;-61
2023/04/06 11:37:01;;;;;;;;;;;;;;;14.77;80.83;100837.16;7353996;19;20571;-62
2023/04/06 11:39:29;;;;;;;;;;;;;;;14.70;78.88;100846.81;7359360;19;19919;-64
2023/04/06 11:41:58;;;;;;;;;;;;;;;14.62;77.47;100853.03;7356007;19;19918;-64
2023/04/06 11:44:36;;;;;;;;;;;;;;;14.59;76.87;100853.38;7359369;19;19919;-62
2023/04/06 11:47:05;;;;;;;;;;;;;;;14.54;78.02;100856.56;7355859;19;19957;-63
2023/04/06 11:49:33;;;;;;;;;;;;;;;14.50;78.47;100852.63;7354099;19;19939;-60
2023/04/06 11:52:01;;;;;;;;;;;;;;;14.53;78.46;100856.72;7358071;19;20621;-62
2023/04/06 11:54:37;;;;;;;;;;;;;;;14.59;80.02;100863.97;7360079;19;20482;-60
2023/04/06 11:57:05;;;;;;;;;;;;;;;14.66;79.82;100845.53;7355949;19;19926;-62
2023/04/06 11:59:32;;;;;;;;;;;;;;;14.77;80.62;100856.53;7357895;19;19923;-63
2023/04/06 12:02:01;;;;;;;;;;;;;;;14.91;80.38;100850.44;7355457;19;19958;-62
2023/04/06 12:04:29;;;;;;;;;;;;;;;15.01;78.11;100857.28;7355600;19;19919;-62
2023/04/06 12:06:59;;;;;;;;;;;;;;;15.12;78.06;100857.69;7353989;19;19925;-62
2023/04/06 12:09:29;;;;;;;;;;;;;;;15.24;77.30;100855.38;7358399;19;20331;-62
2023/04/06 12:11:57;;;;;;;;;;;;;;;15.34;74.74;100863.91;7358263;19;19919;-63
2023/04/06 12:14:24;;;;;;;;;;;;;;;15.47;73.16;100864.09;7357600;19;19921;-62
2023/04/06 12:16:51;;;;;;;;;;;;;;;15.60;71.09;100861.63;7349569;19;19987;-60
2023/04/06 12:19:18;;;;;;;;;;;;;;;15.70;69.14;100864.00;7352066;19;19915;-61
2023/04/06 12:21:45;;;;;;;;;;;;;;;15.73;68.15;100856.50;7356823;19;19930;-62
2023/04/06 12:24:12;;;;;;;;;;;;;;;15.80;68.79;100853.91;7356723;19;20377;-63
2023/04/06 12:26:41;;;;;;;;;;;;;;;15.85;67.69;100862.13;7354921;19;19931;-62
2023/04/06 12:29:08;;;;;;;;;;;;;;;15.86;66.86;100849.69;7357197;19;20029;-62
2023/04/06 12:31:38;;;;;;;;;;;;;;;15.82;67.06;100857.22;7356971;19;19929;-60
2023/04/06 12:34:06;;;;;;;;;;;;;;;15.82;67.15;100858.03;7351826;19;19914;-60